Time;durP1;ratioP1;P1;durP2;ratioP2;P2;SDS_P1;SDS_P2;PMS_P1;PMS_P2;Temp;Humidity;BMP_temperature;BMP_pressure;BME280_temperature;BME280_humidity;BME280_pressure;Samples;Min_cycle;Max_cycle;Signal;HPM_P1;HPM_P2
2023/11/22 00:02:32;;;;;;;8.75;3.60;;;;;;;8.38;100.00;101967.31;4861555;29;20040;-94
2023/11/22 00:05:03;;;;;;;18.27;4.45;;;;;;;8.33;100.00;101964.94;4879160;29;20033;-94
2023/11/22 00:07:32;;;;;;;17.02;6.28;;;;;;;8.34;100.00;101956.13;4909627;29;20072;-95
2023/11/22 00:10:04;;;;;;;17.15;6.80;;;;;;;8.39;100.00;101948.78;4882615;29;20488;-96
2023/11/22 00:12:38;;;;;;;15.50;8.18;;;;;;;8.40;100.00;101942.59;4907446;29;20037;-96
2023/11/22 00:15:09;;;;;;;9.00;4.03;;;;;;;8.44;100.00;101943.25;4868393;29;20047;-93
2023/11/22 00:17:35;;;;;;;5.57;2.50;;;;;;;8.47;100.00;101927.25;4879381;29;20052;-95
2023/11/22 00:20:05;;;;;;;11.73;2.70;;;;;;;8.53;100.00;101933.94;4880555;29;20123;-94
2023/11/22 00:22:32;;;;;;;4.30;2.28;;;;;;;8.58;100.00;101924.00;4881552;29;20048;-95
2023/11/22 00:25:34;;;;;;;;;;;;;;;;;;;;;
2023/11/22 00:28:50;;;;;;;4.78;1.73;;;;;;;8.62;100.00;101917.56;4904804;29;20499;-96
2023/11/22 00:31:23;;;;;;;13.93;2.20;;;;;;;8.70;100.00;101922.38;4901728;29;20052;-96
2023/11/22 00:33:54;;;;;;;6.35;2.25;;;;;;;8.74;100.00;101915.97;4890233;29;20045;-96
2023/11/22 00:36:23;;;;;;;2.70;1.80;;;;;;;8.75;100.00;101925.56;4868705;29;20044;-94
2023/11/22 00:38:49;;;;;;;5.90;1.90;;;;;;;8.72;100.00;101920.50;4865272;29;20044;-95
2023/11/22 00:41:17;;;;;;;3.80;1.80;;;;;;;8.72;100.00;101917.84;4874882;29;20036;-96
2023/11/22 00:43:46;;;;;;;5.55;1.60;;;;;;;8.77;100.00;101917.56;4892739;29;20036;-96
2023/11/22 00:46:12;;;;;;;3.28;2.00;;;;;;;8.81;100.00;101924.31;4858263;29;20499;-95
2023/11/22 00:48:38;;;;;;;6.15;1.65;;;;;;;8.79;100.00;101913.06;4881758;29;20044;-94
2023/11/22 00:51:08;;;;;;;7.47;2.08;;;;;;;8.81;100.00;101911.16;4867739;29;20057;-96
2023/11/22 00:53:36;;;;;;;7.32;1.90;;;;;;;8.83;100.00;101913.69;4913047;29;20049;-96
2023/11/22 00:56:06;;;;;;;3.10;1.85;;;;;;;8.82;100.00;101907.59;4874683;29;20041;-95
2023/11/22 00:58:32;;;;;;;2.15;1.80;;;;;;;8.83;100.00;101916.31;4902039;29;20128;-95
2023/11/22 01:00:59;;;;;;;4.68;1.90;;;;;;;8.80;100.00;101910.31;4872411;29;20047;-96
2023/11/22 01:03:25;;;;;;;7.13;2.10;;;;;;;8.83;100.00;101918.97;4909733;29;20046;-96
2023/11/22 01:05:53;;;;;;;4.15;1.70;;;;;;;8.85;100.00;101932.91;4869896;29;20040;-94
2023/11/22 01:08:19;;;;;;;6.72;1.70;;;;;;;8.80;100.00;101925.28;4898240;29;20068;-95
2023/11/22 01:10:46;;;;;;;3.97;2.15;;;;;;;8.81;100.00;101942.78;4884983;29;20036;-94
2023/11/22 01:13:13;;;;;;;8.82;2.30;;;;;;;8.79;100.00;101934.97;4870528;29;20043;-95
2023/11/22 01:15:40;;;;;;;4.00;2.03;;;;;;;8.84;100.00;101931.22;4886204;29;20036;-95
2023/11/22 01:18:06;;;;;;;5.75;1.95;;;;;;;8.80;100.00;101928.78;4867265;29;20036;-94
2023/11/22 01:20:33;;;;;;;6.13;2.08;;;;;;;8.78;100.00;101930.66;4886345;29;20036;-95
2023/11/22 01:22:59;;;;;;;6.57;2.13;;;;;;;8.80;100.00;101936.69;4895518;29;20028;-95
2023/11/22 01:25:26;;;;;;;10.05;2.28;;;;;;;8.80;100.00;101935.81;4898105;29;20055;-96
2023/11/22 02:07:05;;;;;;;4.53;1.70;;;;;;;8.78;100.00;101883.19;4905939;29;20056;-96
2023/11/22 02:10:16;;;;;;;3.63;1.60;;;;;;;8.78;100.00;101885.84;4886139;29;20126;-96
2023/11/22 02:17:58;;;;;;;5.00;1.40;;;;;;;8.79;100.00;101882.25;4906759;29;20044;-95
2023/11/22 02:20:25;;;;;;;1.83;0.82;;;;;;;8.84;100.00;101883.75;4908840;29;20044;-96
2023/11/22 02:28:02;;;;;;;4.72;1.35;;;;;;;8.93;100.00;101872.63;4862337;29;20040;-96
2023/11/22 02:35:13;;;;;;;1.85;0.70;;;;;;;8.99;100.00;101868.72;4816698;29;20046;-96
2023/11/22 02:38:30;;;;;;;;;;;;;;;;;;;;;
2023/11/22 02:48:37;;;;;;;0.13;0.13;;;;;;;9.25;100.00;101874.13;4900123;29;20079;-96
2023/11/22 02:51:03;;;;;;;1.00;0.40;;;;;;;9.28;100.00;101863.38;4885364;29;20040;-96
2023/11/22 02:53:30;;;;;;;0.22;0.20;;;;;;;9.31;100.00;101873.72;4904692;29;20502;-96
2023/11/22 02:56:37;;;;;;;0.55;0.10;;;;;;;9.44;100.00;101871.13;4879961;29;20047;-96
2023/11/22 02:59:21;;;;;;;0.65;0.30;;;;;;;9.39;100.00;101860.88;4894342;29;20518;-96
2023/11/22 03:01:47;;;;;;;0.68;0.20;;;;;;;9.46;100.00;101852.56;4879215;29;20044;-96
2023/11/22 03:08:41;;;;;;;0.70;0.20;;;;;;;9.60;100.00;101859.53;4914109;29;20051;-96
2023/11/22 03:11:07;;;;;;;0.75;0.20;;;;;;;9.55;100.00;101858.06;4901184;29;20048;-96
2023/11/22 03:13:38;;;;;;;0.75;0.20;;;;;;;9.56;100.00;101866.81;4895477;29;20048;-96
2023/11/22 03:16:53;;;;;;;0.40;0.20;;;;;;;9.65;100.00;101882.03;4908109;29;20051;-96
2023/11/22 03:19:28;;;;;;;1.20;0.20;;;;;;;9.60;100.00;101875.38;4871198;29;20040;-96
2023/11/22 03:21:59;;;;;;;0.80;0.30;;;;;;;9.66;100.00;101886.38;4873283;29;20114;-96
2023/11/22 03:24:27;;;;;;;1.20;0.20;;;;;;;9.71;100.00;101872.88;4900433;29;20047;-96
2023/11/22 03:26:58;;;;;;;0.57;0.10;;;;;;;9.68;100.00;101875.72;4900385;29;20139;-96
2023/11/22 03:29:29;;;;;;;0.40;0.15;;;;;;;9.66;100.00;101873.19;4888656;29;20491;-96
2023/11/22 03:31:59;;;;;;;0.90;0.20;;;;;;;9.69;100.00;101877.41;4891695;29;20060;-96
2023/11/22 03:34:28;;;;;;;0.85;0.30;;;;;;;9.71;100.00;101872.88;4903924;29;20052;-96
2023/11/22 03:36:54;;;;;;;0.73;0.30;;;;;;;9.71;100.00;101869.38;4869593;29;20041;-96
2023/11/22 03:39:21;;;;;;;0.88;0.32;;;;;;;9.73;100.00;101870.13;4878370;29;20036;-96
2023/11/22 03:41:48;;;;;;;1.55;0.45;;;;;;;9.75;100.00;101860.28;4899382;29;20048;-96
2023/11/22 03:44:16;;;;;;;0.63;0.40;;;;;;;9.76;100.00;101851.44;4894524;29;20185;-96
2023/11/22 03:46:44;;;;;;;2.63;0.20;;;;;;;9.75;100.00;101857.66;4886747;29;20243;-96
2023/11/22 03:49:10;;;;;;;0.38;0.20;;;;;;;9.73;100.00;101867.50;4918747;29;20044;-96
2023/11/22 03:51:38;;;;;;;2.75;0.20;;;;;;;9.74;100.00;101883.22;4887670;29;20036;-96
2023/11/22 03:54:05;;;;;;;1.13;0.30;;;;;;;9.69;100.00;101874.75;4880327;29;20048;-96
2023/11/22 03:56:35;;;;;;;0.40;0.30;;;;;;;9.68;100.00;101881.00;4902789;29;20056;-96
2023/11/22 03:59:01;;;;;;;0.30;0.28;;;;;;;9.64;100.00;101863.66;4881142;29;20029;-96
2023/11/22 04:01:32;;;;;;;2.30;0.20;;;;;;;9.73;100.00;101878.06;4899688;29;20594;-96
2023/11/22 04:04:01;;;;;;;2.40;0.38;;;;;;;9.67;100.00;101876.66;4871835;29;20463;-96
2023/11/22 04:06:29;;;;;;;1.85;0.30;;;;;;;9.70;100.00;101879.09;4888973;29;20126;-96
2023/11/22 04:08:55;;;;;;;0.25;0.13;;;;;;;9.67;100.00;101874.00;4886426;29;20040;-96
2023/11/22 04:11:23;;;;;;;0.80;0.38;;;;;;;9.66;100.00;101854.72;4905007;29;20044;-96
2023/11/22 04:13:49;;;;;;;1.65;0.20;;;;;;;9.66;100.00;101859.13;4878098;29;20040;-96
2023/11/22 04:16:17;;;;;;;0.82;0.30;;;;;;;9.67;100.00;101852.88;4902924;29;20107;-96
2023/11/22 04:18:43;;;;;;;1.40;0.30;;;;;;;9.67;100.00;101847.59;4896021;29;20036;-96
2023/11/22 04:21:11;;;;;;;1.42;0.30;;;;;;;9.67;100.00;101843.19;4867658;29;20039;-96
2023/11/22 04:23:45;;;;;;;1.85;0.30;;;;;;;9.74;100.00;101840.13;4883690;29;20036;-96
2023/11/22 04:26:14;;;;;;;2.47;0.30;;;;;;;9.71;100.00;101840.34;4906008;29;20112;-96
2023/11/22 04:28:46;;;;;;;2.40;0.30;;;;;;;9.71;100.00;101841.19;4890396;29;20040;-96
2023/11/22 04:31:15;;;;;;;2.63;0.68;;;;;;;9.70;100.00;101843.94;4899823;29;20056;-96
2023/11/22 04:33:46;;;;;;;1.30;0.45;;;;;;;9.71;100.00;101840.34;4891427;29;20073;-96
2023/11/22 04:36:17;;;;;;;0.75;0.30;;;;;;;9.72;100.00;101858.72;4871168;29;20048;-96
2023/11/22 04:38:49;;;;;;;0.73;0.20;;;;;;;9.75;100.00;101852.38;4887348;29;20025;-96
2023/11/22 04:41:18;;;;;;;2.30;0.30;;;;;;;9.77;100.00;101853.97;4904575;29;20044;-96
2023/11/22 04:43:53;;;;;;;2.55;0.38;;;;;;;9.73;100.00;101847.19;4897841;29;20095;-96
2023/11/22 04:46:21;;;;;;;3.05;0.40;;;;;;;9.76;100.00;101840.88;4900424;29;20056;-96
2023/11/22 04:48:50;;;;;;;3.80;0.32;;;;;;;9.74;100.00;101842.78;4892960;29;20104;-96
2023/11/22 04:51:17;;;;;;;2.55;0.28;;;;;;;9.76;100.00;101844.34;4886596;29;20040;-96
2023/11/22 04:53:46;;;;;;;3.40;0.57;;;;;;;9.75;100.00;101837.38;4899055;29;20406;-96
2023/11/22 04:56:12;;;;;;;1.40;0.30;;;;;;;9.77;100.00;101832.84;4908250;29;20036;-96
2023/11/22 04:58:40;;;;;;;5.35;0.50;;;;;;;9.75;100.00;101832.09;4906693;29;20147;-96
2023/11/22 05:01:06;;;;;;;1.40;0.40;;;;;;;9.79;100.00;101840.66;4883207;29;20048;-96
2023/11/22 05:03:45;;;;;;;3.97;0.63;;;;;;;9.81;100.00;101838.75;4911729;29;20044;-96
2023/11/22 05:06:12;;;;;;;1.73;0.57;;;;;;;9.78;100.00;101826.59;4883371;29;20433;-96
2023/11/22 05:08:43;;;;;;;3.53;0.40;;;;;;;9.77;100.00;101842.56;4903662;29;20105;-96
2023/11/22 05:11:15;;;;;;;3.15;0.60;;;;;;;9.79;100.00;101846.78;4888240;29;20071;-96
2023/11/22 05:13:46;;;;;;;2.20;0.38;;;;;;;9.78;100.00;101834.53;4894071;29;20099;-96
2023/11/22 05:16:13;;;;;;;4.32;0.70;;;;;;;9.77;100.00;101843.41;4885318;29;20032;-96
2023/11/22 05:18:41;;;;;;;4.45;0.60;;;;;;;9.81;100.00;101851.94;4888452;29;20032;-96
2023/11/22 05:21:12;;;;;;;5.60;0.60;;;;;;;9.82;100.00;101848.38;4897118;29;20040;-96
2023/11/22 05:23:44;;;;;;;2.13;0.60;;;;;;;9.85;100.00;101837.59;4904968;29;20483;-96
2023/11/22 05:26:13;;;;;;;5.35;0.35;;;;;;;9.85;100.00;101847.31;4872523;29;20180;-96
2023/11/22 05:28:44;;;;;;;8.68;0.90;;;;;;;9.89;100.00;101838.25;4905341;29;20040;-96
2023/11/22 05:31:18;;;;;;;2.95;1.35;;;;;;;9.88;100.00;101836.53;4889370;29;20032;-96
2023/11/22 05:33:46;;;;;;;13.30;1.00;;;;;;;9.85;100.00;101839.41;4881378;29;20053;-96
2023/11/22 05:36:17;;;;;;;7.35;0.60;;;;;;;9.86;100.00;101849.84;4881908;29;20040;-96
2023/11/22 05:38:46;;;;;;;7.68;1.83;;;;;;;9.86;100.00;101852.50;4873028;29;20040;-96
2023/11/22 05:41:15;;;;;;;14.65;1.45;;;;;;;9.90;100.00;101847.84;4875723;29;20036;-96
2023/11/22 05:43:42;;;;;;;11.07;1.85;;;;;;;9.93;100.00;101847.66;4901062;29;20040;-96
2023/11/22 05:46:08;;;;;;;9.88;1.45;;;;;;;9.93;100.00;101859.06;4884629;29;20051;-96
2023/11/22 05:48:37;;;;;;;8.70;1.30;;;;;;;9.95;100.00;101866.88;4902399;29;20040;-96
2023/11/22 05:51:08;;;;;;;12.68;2.22;;;;;;;10.00;100.00;101867.38;4900249;29;20043;-96
2023/11/22 05:53:34;;;;;;;11.25;1.30;;;;;;;9.97;100.00;101861.50;4887774;29;20047;-96
2023/11/22 05:56:00;;;;;;;14.68;2.85;;;;;;;9.99;100.00;101860.44;4883635;29;20103;-96
2023/11/22 05:58:26;;;;;;;6.43;1.13;;;;;;;10.00;100.00;101866.56;4888036;29;20044;-96
2023/11/22 06:00:54;;;;;;;6.60;1.10;;;;;;;10.01;100.00;101858.53;4871903;29;20101;-94
2023/11/22 06:03:20;;;;;;;12.65;1.58;;;;;;;10.02;100.00;101854.06;4873105;29;20048;-96
2023/11/22 06:05:46;;;;;;;13.90;1.05;;;;;;;10.00;100.00;101848.91;4871894;29;20049;-96
2023/11/22 06:08:15;;;;;;;9.88;1.05;;;;;;;10.01;100.00;101847.13;4858765;29;20039;-96
2023/11/22 06:10:41;;;;;;;12.20;2.25;;;;;;;10.01;100.00;101836.53;4868836;29;20077;-96
2023/11/22 06:13:08;;;;;;;6.57;1.00;;;;;;;10.02;100.00;101848.78;4865034;29;20044;-96
2023/11/22 06:15:37;;;;;;;7.55;1.40;;;;;;;10.02;100.00;101843.50;4854360;29;20106;-94
2023/11/22 06:18:03;;;;;;;10.02;1.42;;;;;;;10.03;100.00;101853.16;4845408;29;20044;-95
2023/11/22 06:20:29;;;;;;;11.05;1.73;;;;;;;10.02;100.00;101847.00;4863442;29;20088;-96
2023/11/22 06:22:55;;;;;;;11.82;1.42;;;;;;;10.04;100.00;101838.97;4830902;29;20037;-96
2023/11/22 06:25:25;;;;;;;9.10;1.15;;;;;;;10.06;100.00;101831.81;4865656;29;20052;-96
2023/11/22 06:27:55;;;;;;;18.58;1.98;;;;;;;10.09;100.00;101844.78;4866437;29;20105;-96
2023/11/22 06:30:25;;;;;;;7.65;1.40;;;;;;;10.05;100.00;101852.06;4846711;29;20060;-96
2023/11/22 06:32:55;;;;;;;18.13;1.55;;;;;;;10.06;100.00;101850.28;4859068;29;20045;-96
2023/11/22 06:35:24;;;;;;;14.88;2.08;;;;;;;10.07;100.00;101837.91;4844909;29;20056;-96
2023/11/22 06:37:52;;;;;;;10.45;1.73;;;;;;;10.09;100.00;101842.16;4857610;29;20040;-96
2023/11/22 06:40:21;;;;;;;11.10;1.60;;;;;;;10.12;100.00;101857.78;4861379;29;20042;-96
2023/11/22 06:42:47;;;;;;;8.25;1.85;;;;;;;10.11;100.00;101863.19;4856475;29;20052;-96
2023/11/22 06:45:13;;;;;;;13.75;1.85;;;;;;;10.13;100.00;101864.75;4861791;29;20041;-96
2023/11/22 06:47:42;;;;;;;13.52;1.83;;;;;;;10.15;100.00;101864.66;4851920;29;20044;-96
2023/11/22 06:50:14;;;;;;;9.80;1.42;;;;;;;10.11;100.00;101857.91;4895203;29;20104;-96
2023/11/22 06:52:44;;;;;;;8.20;1.10;;;;;;;10.14;100.00;101866.47;4864016;29;20045;-96
2023/11/22 06:55:17;;;;;;;7.75;1.25;;;;;;;10.14;100.00;101863.81;4854344;29;20029;-96
2023/11/22 06:57:50;;;;;;;14.35;1.83;;;;;;;10.18;100.00;101861.78;4850795;29;20499;-96
2023/11/22 07:00:16;;;;;;;11.98;1.40;;;;;;;10.16;100.00;101861.91;4854727;29;20196;-96
2023/11/22 07:02:49;;;;;;;10.27;1.17;;;;;;;10.15;100.00;101862.88;4862903;29;20037;-96
2023/11/22 07:05:15;;;;;;;13.30;1.50;;;;;;;10.16;100.00;101869.81;4836113;29;20502;-96
2023/11/22 07:07:41;;;;;;;16.80;1.88;;;;;;;10.14;100.00;101873.53;4857337;29;20052;-96
2023/11/22 07:10:08;;;;;;;12.90;1.58;;;;;;;10.17;100.00;101879.47;4845181;29;20049;-96
2023/11/22 07:12:36;;;;;;;6.82;0.90;;;;;;;10.21;100.00;101873.97;4860858;29;20068;-96
2023/11/22 07:15:05;;;;;;;10.90;1.55;;;;;;;10.17;100.00;101884.75;4861890;29;20044;-96
2023/11/22 07:17:33;;;;;;;12.60;1.77;;;;;;;10.16;100.00;101871.63;4845635;29;20453;-96
2023/11/22 07:20:05;;;;;;;9.77;1.20;;;;;;;10.18;100.00;101881.16;4877528;29;20079;-96
2023/11/22 07:22:38;;;;;;;8.23;1.20;;;;;;;10.20;100.00;101882.81;4865454;29;20033;-96
2023/11/22 07:25:07;;;;;;;7.63;1.00;;;;;;;10.18;100.00;101886.44;4868729;29;20037;-96
2023/11/22 07:27:34;;;;;;;10.02;1.35;;;;;;;10.15;100.00;101876.06;4858476;29;20457;-96
2023/11/22 07:30:00;;;;;;;9.65;1.40;;;;;;;10.15;100.00;101870.78;4856713;29;20070;-96
2023/11/22 07:32:31;;;;;;;11.70;1.40;;;;;;;10.17;100.00;101876.81;4862885;29;20367;-96
2023/11/22 07:35:03;;;;;;;8.40;1.42;;;;;;;10.20;100.00;101862.53;4881691;29;20071;-96
2023/11/22 07:37:30;;;;;;;9.75;1.02;;;;;;;10.17;100.00;101873.31;4860895;29;20040;-96
2023/11/22 07:40:00;;;;;;;11.88;0.95;;;;;;;10.16;100.00;101866.34;4844347;29;20036;-96
2023/11/22 07:42:29;;;;;;;9.23;1.05;;;;;;;10.18;100.00;101861.78;4864239;29;20069;-96
2023/11/22 07:44:56;;;;;;;8.88;1.10;;;;;;;10.16;100.00;101855.78;4867937;29;20101;-96
2023/11/22 07:47:28;;;;;;;11.50;1.17;;;;;;;10.17;100.00;101860.13;4905358;29;20041;-96
2023/11/22 07:50:01;;;;;;;8.10;1.40;;;;;;;10.17;100.00;101860.97;4847400;29;20037;-96
2023/11/22 07:52:29;;;;;;;14.95;1.02;;;;;;;10.18;100.00;101864.44;4870776;29;20037;-96
2023/11/22 07:54:59;;;;;;;7.30;1.13;;;;;;;10.21;100.00;101869.50;4873215;29;20460;-96
2023/11/22 07:57:33;;;;;;;6.13;0.93;;;;;;;10.23;100.00;101875.53;4885306;29;20058;-96
2023/11/22 08:00:04;;;;;;;12.07;1.15;;;;;;;10.19;100.00;101874.06;4868866;29;20033;-96
2023/11/22 08:02:44;;;;;;;9.57;0.98;;;;;;;10.19;100.00;101871.44;4862344;29;20037;-96
2023/11/22 08:05:12;;;;;;;8.63;1.05;;;;;;;10.20;100.00;101882.81;4865335;29;20066;-96
2023/11/22 08:07:45;;;;;;;5.90;0.90;;;;;;;10.18;100.00;101883.78;4867155;29;20058;-96
2023/11/22 08:10:48;;;;;;;6.70;1.15;;;;;;;10.27;100.00;101895.50;4857523;29;20049;-96
2023/11/22 08:13:19;;;;;;;3.75;0.75;;;;;;;10.24;100.00;101890.44;4874487;29;20037;-96
2023/11/22 08:15:48;;;;;;;4.72;0.95;;;;;;;10.22;100.00;101887.06;4898747;29;20079;-96
2023/11/22 08:18:19;;;;;;;5.97;1.27;;;;;;;10.21;100.00;101889.81;4865185;29;20069;-96
2023/11/22 08:20:50;;;;;;;7.60;1.20;;;;;;;10.20;100.00;101883.69;4879043;29;20080;-96
2023/11/22 08:23:17;;;;;;;6.45;1.00;;;;;;;10.21;100.00;101892.47;4880325;29;20033;-96
2023/11/22 08:25:49;;;;;;;5.78;1.10;;;;;;;10.27;100.00;101887.56;4859908;29;20392;-96
2023/11/22 08:28:18;;;;;;;3.10;0.77;;;;;;;10.21;100.00;101890.66;4884112;29;20037;-96
2023/11/22 08:30:48;;;;;;;4.03;0.90;;;;;;;10.24;100.00;101892.25;4853060;29;20049;-96
2023/11/22 08:33:16;;;;;;;4.70;0.57;;;;;;;10.22;100.00;101887.06;4883246;29;20044;-96
2023/11/22 08:35:50;;;;;;;3.67;1.02;;;;;;;10.25;100.00;101899.22;4875915;29;20037;-96
2023/11/22 08:38:22;;;;;;;4.60;0.60;;;;;;;10.28;100.00;101897.22;4855993;29;20084;-96
2023/11/22 08:40:50;;;;;;;8.80;1.10;;;;;;;10.26;100.00;101903.53;4852795;29;20033;-96
2023/11/22 08:43:17;;;;;;;3.55;0.70;;;;;;;10.26;100.00;101899.09;4862273;29;20057;-96
2023/11/22 08:45:43;;;;;;;4.22;0.82;;;;;;;10.28;100.00;101901.66;4856735;29;20049;-96
2023/11/22 08:48:10;;;;;;;3.15;0.70;;;;;;;10.30;100.00;101897.09;4871852;29;20045;-96
2023/11/22 08:50:38;;;;;;;4.53;0.60;;;;;;;10.32;100.00;101897.00;4874491;29;20044;-96
2023/11/22 08:53:08;;;;;;;4.78;0.55;;;;;;;10.31;100.00;101898.78;4865838;29;20041;-96
2023/11/22 08:55:43;;;;;;;3.35;0.50;;;;;;;10.38;100.00;101901.84;4877122;29;20130;-96
2023/11/22 08:58:13;;;;;;;1.70;0.70;;;;;;;10.39;100.00;101906.19;4868483;29;20128;-96
2023/11/22 09:00:44;;;;;;;4.00;0.80;;;;;;;10.35;100.00;101900.25;4879019;29;20077;-96
2023/11/22 09:03:17;;;;;;;5.10;0.70;;;;;;;10.37;100.00;101900.16;4895694;29;20096;-96
2023/11/22 09:05:52;;;;;;;2.60;1.08;;;;;;;10.41;100.00;101899.84;4880155;29;20076;-96
2023/11/22 09:08:20;;;;;;;5.40;0.80;;;;;;;10.37;100.00;101901.00;4887842;29;20037;-96
2023/11/22 09:10:50;;;;;;;4.80;0.70;;;;;;;10.38;100.00;101905.31;4861535;29;20064;-96
2023/11/22 09:13:19;;;;;;;6.13;0.82;;;;;;;10.40;100.00;101914.00;4881852;29;20069;-96
2023/11/22 09:15:47;;;;;;;4.78;0.50;;;;;;;10.39;100.00;101903.53;4897826;29;20068;-96
2023/11/22 09:18:16;;;;;;;5.70;2.20;;;;;;;10.44;100.00;101912.00;4866084;29;20085;-96
2023/11/22 09:20:45;;;;;;;4.43;1.60;;;;;;;10.39;100.00;101908.81;4864349;29;20033;-96
2023/11/22 09:23:13;;;;;;;3.60;1.55;;;;;;;10.43;100.00;101905.84;4896923;29;20129;-96
2023/11/22 09:25:43;;;;;;;4.35;1.50;;;;;;;10.45;100.00;101913.69;4875115;29;20038;-96
2023/11/22 09:28:09;;;;;;;3.40;1.40;;;;;;;10.47;100.00;101905.66;4852654;29;20041;-96
2023/11/22 09:30:37;;;;;;;2.67;0.80;;;;;;;10.48;100.00;101910.03;4852557;29;20060;-96
2023/11/22 09:33:19;;;;;;;4.68;0.60;;;;;;;10.50;100.00;101910.75;4846274;29;20092;-96
2023/11/22 09:35:47;;;;;;;1.00;0.40;;;;;;;10.51;100.00;101909.81;4871813;29;20033;-96
2023/11/22 09:38:16;;;;;;;2.08;0.43;;;;;;;10.50;100.00;101902.81;4862073;29;20029;-96
2023/11/22 09:40:47;;;;;;;3.30;0.40;;;;;;;10.53;100.00;101911.38;4875306;29;20036;-96
2023/11/22 09:43:17;;;;;;;3.83;0.55;;;;;;;10.59;100.00;101914.56;4860736;29;20105;-96
2023/11/22 09:45:44;;;;;;;2.08;0.45;;;;;;;10.60;100.00;101913.59;4890408;29;20044;-96
2023/11/22 09:48:15;;;;;;;3.65;0.77;;;;;;;10.62;100.00;101914.34;4888001;29;20068;-96
2023/11/22 09:51:22;;;;;;;2.25;0.50;;;;;;;10.65;100.00;101916.75;4860790;29;20033;-96
2023/11/22 09:54:00;;;;;;;1.45;0.65;;;;;;;10.66;100.00;101921.09;4869552;29;20055;-96
2023/11/22 09:56:30;;;;;;;7.10;1.42;;;;;;;10.65;100.00;101922.06;4862474;29;20404;-96
2023/11/22 09:59:00;;;;;;;1.58;0.60;;;;;;;10.66;100.00;101921.09;4885756;29;20487;-96
2023/11/22 10:01:33;;;;;;;3.63;0.70;;;;;;;10.72;100.00;101915.38;4850854;29;20491;-96
2023/11/22 10:03:59;;;;;;;5.45;1.00;;;;;;;10.68;100.00;101916.56;4867643;29;20041;-96
2023/11/22 10:06:33;;;;;;;2.60;0.52;;;;;;;10.71;100.00;101915.47;4874503;29;20044;-96
2023/11/22 10:09:05;;;;;;;1.30;0.30;;;;;;;10.67;100.00;101913.06;4867633;29;20558;-96
2023/11/22 10:11:31;;;;;;;1.88;0.40;;;;;;;10.71;100.00;101918.13;4885324;29;20055;-96
2023/11/22 10:13:59;;;;;;;2.20;0.32;;;;;;;10.72;100.00;101910.06;4863157;29;20068;-96
2023/11/22 10:16:29;;;;;;;1.75;0.40;;;;;;;10.75;100.00;101922.25;4892409;29;20060;-96
2023/11/22 10:18:55;;;;;;;1.98;0.40;;;;;;;10.74;100.00;101910.81;4868224;29;20045;-96
2023/11/22 10:21:37;;;;;;;3.00;0.50;;;;;;;10.77;100.00;101915.03;4881248;29;20117;-96
2023/11/22 10:24:09;;;;;;;0.98;0.30;;;;;;;10.75;100.00;101916.97;4891180;29;20040;-96
2023/11/22 10:26:46;;;;;;;2.97;0.55;;;;;;;10.79;100.00;101914.00;4864032;29;20044;-96
2023/11/22 10:29:20;;;;;;;2.45;0.38;;;;;;;10.78;100.00;101920.22;4848741;29;20044;-96
2023/11/22 10:31:51;;;;;;;2.67;0.30;;;;;;;10.77;100.00;101918.53;4854877;29;20048;-96
2023/11/22 10:34:25;;;;;;;2.88;0.30;;;;;;;10.82;100.00;101910.28;4884593;29;20049;-95
2023/11/22 10:36:53;;;;;;;0.75;0.20;;;;;;;10.77;100.00;101917.69;4875254;29;20045;-96
2023/11/22 10:39:20;;;;;;;0.10;0.10;;;;;;;10.83;100.00;101913.78;4858686;29;20037;-96
2023/11/22 10:41:51;;;;;;;0.57;0.22;;;;;;;10.87;100.00;101907.28;4868725;29;20094;-96
2023/11/22 10:44:21;;;;;;;0.85;0.30;;;;;;;10.88;100.00;101911.63;4836589;29;20037;-96
2023/11/22 10:46:50;;;;;;;2.28;0.50;;;;;;;10.88;100.00;101906.34;4874754;29;20033;-96
2023/11/22 10:49:21;;;;;;;1.77;0.28;;;;;;;10.90;100.00;101907.06;4876660;29;20036;-96
2023/11/22 10:51:53;;;;;;;2.05;0.22;;;;;;;10.90;100.00;101907.06;4872892;29;20037;-96
2023/11/22 10:54:24;;;;;;;1.23;0.30;;;;;;;10.94;100.00;101903.25;4869748;29;20189;-96
2023/11/22 10:56:56;;;;;;;1.55;0.20;;;;;;;10.98;100.00;101899.44;4877349;29;20048;-96
2023/11/22 10:59:31;;;;;;;2.28;0.30;;;;;;;10.99;100.00;101897.66;4873541;29;20040;-96
2023/11/22 11:02:03;;;;;;;1.30;0.13;;;;;;;10.98;100.00;101896.78;4889644;29;20040;-96
2023/11/22 11:04:42;;;;;;;0.45;0.15;;;;;;;11.01;100.00;101895.72;4873130;29;20048;-96
2023/11/22 11:07:17;;;;;;;2.33;0.15;;;;;;;10.98;100.00;101901.22;4883378;29;20139;-96
2023/11/22 11:09:47;;;;;;;1.02;0.40;;;;;;;11.01;100.00;101909.81;4861160;29;20125;-96
2023/11/22 11:12:14;;;;;;;1.00;0.20;;;;;;;10.99;100.00;101901.13;4872706;29;20041;-96
2023/11/22 11:14:40;;;;;;;2.67;0.20;;;;;;;11.01;100.00;101893.94;4869854;29;20053;-96
2023/11/22 11:17:09;;;;;;;2.22;0.20;;;;;;;11.01;100.00;101885.13;4881546;29;20124;-96
2023/11/22 11:19:41;;;;;;;2.55;0.25;;;;;;;11.07;100.00;101889.16;4873308;29;20037;-96
2023/11/22 11:22:10;;;;;;;0.75;0.20;;;;;;;11.02;100.00;101882.38;4900861;29;20062;-96
2023/11/22 11:24:44;;;;;;;0.95;0.20;;;;;;;11.02;100.00;101878.91;4865669;29;20032;-96
2023/11/22 11:27:10;;;;;;;2.50;0.30;;;;;;;11.03;100.00;101892.03;4880993;29;20033;-96
2023/11/22 11:29:42;;;;;;;0.68;0.10;;;;;;;11.02;100.00;101887.66;4885400;29;20051;-96
2023/11/22 11:32:32;;;;;;;2.47;0.95;;;;;;;11.11;100.00;101895.91;4860335;29;20033;-96
2023/11/22 11:35:06;;;;;;;2.00;0.22;;;;;;;11.08;100.00;101882.91;4873140;29;20502;-96
2023/11/22 11:37:37;;;;;;;1.77;0.30;;;;;;;11.08;100.00;101907.56;4870020;29;20033;-96
2023/11/22 11:40:25;;;;;;;1.08;0.20;;;;;;;11.16;100.00;101905.19;4866651;29;20065;-96
2023/11/22 11:42:55;;;;;;;0.22;0.13;;;;;;;11.15;100.00;101905.28;4861515;29;20045;-96
2023/11/22 11:45:39;;;;;;;0.68;0.35;;;;;;;11.19;100.00;101919.16;4876131;29;20108;-96
2023/11/22 11:48:09;;;;;;;1.73;0.25;;;;;;;11.16;100.00;101907.00;4871238;29;20040;-96
2023/11/22 11:50:38;;;;;;;0.52;0.20;;;;;;;11.21;100.00;101907.47;4847274;29;20045;-96
2023/11/22 11:53:08;;;;;;;3.63;0.30;;;;;;;11.20;100.00;101905.81;4886717;29;20037;-96
2023/11/22 11:55:34;;;;;;;1.50;0.20;;;;;;;11.24;100.00;101901.16;4855649;29;20067;-96
2023/11/22 11:58:10;;;;;;;0.50;0.10;;;;;;;11.29;100.00;101905.13;4856276;29;20039;-96
2023/11/22 12:00:41;;;;;;;0.85;0.10;;;;;;;11.26;100.00;101908.00;4875703;29;20072;-96
2023/11/22 12:03:19;;;;;;;0.45;0.20;;;;;;;11.34;100.00;101910.09;4879046;29;20041;-96
2023/11/22 12:06:10;;;;;;;0.28;0.10;;;;;;;11.28;100.00;101913.19;4885775;29;20055;-96
2023/11/22 12:08:38;;;;;;;2.70;0.28;;;;;;;11.29;100.00;101912.25;4868321;29;20048;-96
2023/11/22 12:11:11;;;;;;;1.02;0.20;;;;;;;11.35;100.00;101916.22;4890672;29;20112;-96
2023/11/22 12:13:46;;;;;;;1.50;0.10;;;;;;;11.29;100.00;101907.78;4864892;29;20117;-96
2023/11/22 12:16:24;;;;;;;0.98;0.10;;;;;;;11.34;100.00;101911.91;4856248;29;20044;-96
2023/11/22 12:18:51;;;;;;;1.92;0.10;;;;;;;11.29;100.00;101899.84;4876683;29;20042;-96
2023/11/22 12:21:18;;;;;;;4.72;0.30;;;;;;;11.32;100.00;101890.84;4881504;29;20052;-96
2023/11/22 12:23:46;;;;;;;2.75;0.35;;;;;;;11.32;100.00;101890.00;4862852;29;20037;-96
2023/11/22 12:26:23;;;;;;;1.00;0.20;;;;;;;11.38;100.00;101889.53;4875147;29;20052;-96
2023/11/22 12:28:53;;;;;;;3.53;0.30;;;;;;;11.32;100.00;101884.69;4879098;29;20038;-96
2023/11/22 12:31:22;;;;;;;3.10;0.30;;;;;;;11.35;100.00;101892.41;4858584;29;20040;-96
2023/11/22 12:33:54;;;;;;;0.65;0.10;;;;;;;11.35;100.00;101890.63;4867774;29;20581;-96
2023/11/22 12:36:23;;;;;;;2.53;0.40;;;;;;;11.35;100.00;101905.66;4851936;29;20056;-96
2023/11/22 12:38:57;;;;;;;0.85;0.75;;;;;;;11.33;100.00;101895.16;4866225;29;20116;-96
2023/11/22 12:41:30;;;;;;;3.63;1.80;;;;;;;11.34;100.00;101894.19;4866609;29;20109;-95
2023/11/22 12:44:05;;;;;;;2.42;0.88;;;;;;;11.32;100.00;101885.56;4849798;29;20041;-95
2023/11/22 12:46:59;;;;;;;2.92;1.40;;;;;;;11.35;100.00;101890.63;4850800;29;20052;-96